Time;durP1;ratioP1;P1;durP2;ratioP2;P2;SDS_P1;SDS_P2;PMS_P1;PMS_P2;Temp;Humidity;BMP_temperature;BMP_pressure;BME280_temperature;BME280_humidity;BME280_pressure;Samples;Min_cycle;Max_cycle;Signal;HPM_P1;HPM_P2
2023/09/03 00:00:13;;;;;;;7.80;5.28;;;;;;;-142.75;100.00;77245.53;5024586;28;20025;-62
2023/09/03 00:02:38;;;;;;;6.50;5.13;;;;;;;-142.75;100.00;77241.59;5025057;28;20037;-62
2023/09/03 00:05:04;;;;;;;8.07;5.13;;;;;;;-142.75;100.00;77241.59;5021721;28;20036;-62
2023/09/03 00:07:29;;;;;;;8.85;5.53;;;;;;;-142.75;100.00;77245.53;5024706;28;20438;-61
2023/09/03 00:09:55;;;;;;;7.68;5.07;;;;;;;-142.75;100.00;77259.31;5023396;28;20516;-61
2023/09/03 00:12:20;;;;;;;6.97;5.38;;;;;;;-142.75;100.00;77245.53;5022718;28;20037;-62
2023/09/03 00:14:46;;;;;;;6.97;5.47;;;;;;;-142.75;100.00;77247.50;5023837;28;20025;-61
2023/09/03 00:17:14;;;;;;;9.82;5.70;;;;;;;-142.75;100.00;77237.66;5025805;28;20112;-62
2023/09/03 00:19:41;;;;;;;9.27;5.93;;;;;;;-142.75;100.00;77233.72;5024438;28;20450;-62
2023/09/03 00:22:06;;;;;;;7.47;4.85;;;;;;;-142.75;100.00;77259.31;5017475;28;20104;-62
2023/09/03 00:24:33;;;;;;;7.35;4.95;;;;;;;-142.75;100.00;77263.25;5025022;28;20116;-62
2023/09/03 00:26:58;;;;;;;7.07;5.45;;;;;;;-142.75;100.00;77259.31;5022215;28;20120;-62
2023/09/03 00:29:23;;;;;;;8.73;4.97;;;;;;;-142.75;100.00;77265.22;5025036;28;20109;-61
2023/09/03 00:31:49;;;;;;;8.77;5.70;;;;;;;-142.75;100.00;77257.34;5024898;28;20056;-61
2023/09/03 00:34:14;;;;;;;9.63;5.78;;;;;;;-142.75;100.00;77259.31;5018079;28;20030;-62
2023/09/03 00:36:40;;;;;;;8.10;6.22;;;;;;;-142.75;100.00;77255.38;5024007;28;20579;-60
2023/09/03 00:39:06;;;;;;;9.45;5.63;;;;;;;-142.75;100.00;77251.44;5022707;28;20563;-62
2023/09/03 00:41:31;;;;;;;10.27;6.57;;;;;;;-142.75;100.00;77239.63;5023918;28;20060;-62
2023/09/03 00:43:57;;;;;;;9.05;5.88;;;;;;;-142.75;100.00;77231.75;5021632;28;20103;-62
2023/09/03 00:46:23;;;;;;;11.10;5.85;;;;;;;-142.75;100.00;77225.84;5025359;28;20116;-62
2023/09/03 00:48:50;;;;;;;9.90;7.15;;;;;;;-142.75;100.00;77190.41;5025690;28;20119;-61
2023/09/03 00:51:17;;;;;;;11.13;6.97;;;;;;;-142.75;100.00;77180.56;5025650;28;20043;-62
2023/09/03 00:53:47;;;;;;;8.98;6.50;;;;;;;-142.75;100.00;77166.78;5023536;28;20048;-62
2023/09/03 00:56:13;;;;;;;8.52;6.47;;;;;;;-142.75;100.00;77174.66;5020949;28;20048;-62
2023/09/03 00:58:39;;;;;;;8.57;5.95;;;;;;;-142.75;100.00;77200.25;5024661;28;20022;-62
2023/09/03 01:01:05;;;;;;;10.25;6.00;;;;;;;-142.75;100.00;77200.25;5020588;28;20123;-62
2023/09/03 01:03:32;;;;;;;7.07;5.50;;;;;;;-142.75;100.00;77200.25;5024096;28;20057;-62
2023/09/03 01:05:57;;;;;;;9.40;5.35;;;;;;;-142.75;100.00;77216.00;5022191;28;20029;-62
2023/09/03 01:08:24;;;;;;;7.18;4.97;;;;;;;-142.75;100.00;77223.88;5024014;28;20026;-64
2023/09/03 01:11:25;;;;;;;6.43;5.10;;;;;;;-142.75;100.00;77214.03;5023883;28;20485;-64
2023/09/03 01:14:12;;;;;;;10.55;6.45;;;;;;;-142.75;100.00;77212.06;5016553;28;20037;-64
2023/09/03 01:16:48;;;;;;;9.43;6.03;;;;;;;-142.75;100.00;77214.03;5023894;28;20037;-64
2023/09/03 01:19:34;;;;;;;9.80;6.40;;;;;;;-142.75;100.00;77184.50;5025298;28;20139;-64
2023/09/03 01:22:02;;;;;;;9.20;6.45;;;;;;;-142.75;100.00;77192.38;5024816;28;20102;-64
2023/09/03 01:24:54;;;;;;;9.07;6.43;;;;;;;-142.75;100.00;77192.38;5024351;28;20041;-64
2023/09/03 01:27:33;;;;;;;13.27;6.13;;;;;;;-142.75;100.00;77186.47;5024048;28;20033;-63
2023/09/03 01:30:00;;;;;;;16.75;6.47;;;;;;;-142.75;100.00;77176.63;5025898;28;20028;-64
2023/09/03 01:32:26;;;;;;;9.10;6.13;;;;;;;-142.75;100.00;77188.44;5027894;28;20100;-64
2023/09/03 01:34:53;;;;;;;9.68;6.53;;;;;;;-142.75;100.00;77200.25;5024602;28;20129;-64
2023/09/03 01:37:18;;;;;;;8.40;5.53;;;;;;;-142.75;100.00;77204.19;5023938;28;21206;-64
2023/09/03 01:39:45;;;;;;;8.60;4.95;;;;;;;-142.75;100.00;77219.94;5028817;28;20021;-64
2023/09/03 01:42:10;;;;;;;10.18;5.63;;;;;;;-142.75;100.00;77217.97;5023703;28;20112;-64
2023/09/03 01:44:36;;;;;;;11.02;6.68;;;;;;;-142.75;100.00;77212.06;5025467;28;20105;-64
2023/09/03 01:47:15;;;;;;;10.18;6.70;;;;;;;-142.75;100.00;77219.94;5026963;28;20036;-64
2023/09/03 01:49:53;;;;;;;10.45;6.82;;;;;;;-142.75;100.00;77216.00;5028834;28;20022;-62
2023/09/03 01:52:28;;;;;;;13.10;6.75;;;;;;;-142.75;100.00;77239.63;5028410;28;20040;-61
2023/09/03 01:54:57;;;;;;;8.93;6.03;;;;;;;-142.75;100.00;77273.09;5027738;28;20036;-61
2023/09/03 01:57:33;;;;;;;9.25;6.05;;;;;;;-142.75;100.00;77294.75;5027519;28;20082;-61
2023/09/03 02:00:04;;;;;;;7.47;4.80;;;;;;;-142.75;100.00;77288.84;5026779;28;20023;-61
2023/09/03 02:02:31;;;;;;;7.75;4.65;;;;;;;-142.75;100.00;77304.59;5026362;28;20033;-63
2023/09/03 02:04:56;;;;;;;7.85;5.05;;;;;;;-142.75;100.00;77302.63;5027160;28;20511;-63
2023/09/03 02:07:21;;;;;;;8.40;5.55;;;;;;;-142.75;100.00;77306.56;5027276;28;20096;-63
2023/09/03 02:09:47;;;;;;;8.85;5.53;;;;;;;-142.75;100.00;77320.34;5025506;28;20021;-62
2023/09/03 02:12:12;;;;;;;15.23;6.15;;;;;;;-142.75;100.00;77300.66;5028788;28;20017;-63
2023/09/03 02:14:38;;;;;;;7.45;5.30;;;;;;;-142.75;100.00;77304.59;5029346;28;20045;-63
2023/09/03 02:17:03;;;;;;;9.38;6.38;;;;;;;-142.75;100.00;77288.84;5028683;28;20497;-62
2023/09/03 02:19:29;;;;;;;10.38;6.72;;;;;;;-142.75;100.00;77279.00;5029269;28;20025;-62
2023/09/03 02:21:54;;;;;;;10.15;7.15;;;;;;;-142.75;100.00;77259.31;5029254;28;20035;-63
2023/09/03 02:24:19;;;;;;;10.15;7.18;;;;;;;-142.75;100.00;77237.66;5028878;28;20104;-62
2023/09/03 02:26:46;;;;;;;10.57;6.63;;;;;;;-142.75;100.00;77214.03;5028934;28;20052;-62
2023/09/03 02:29:12;;;;;;;9.73;7.13;;;;;;;-142.75;100.00;77219.94;5028685;28;20056;-62
2023/09/03 02:31:37;;;;;;;10.55;6.82;;;;;;;-142.75;100.00;77219.94;5029290;28;20039;-63
2023/09/03 02:34:04;;;;;;;10.18;7.03;;;;;;;-142.75;100.00;77223.88;5028844;28;20536;-62
2023/09/03 02:36:31;;;;;;;9.95;6.65;;;;;;;-142.75;100.00;77233.72;5028120;28;20022;-62
2023/09/03 02:39:05;;;;;;;9.15;5.40;;;;;;;-142.75;100.00;77204.19;5029163;28;20024;-62
2023/09/03 02:41:31;;;;;;;11.02;6.72;;;;;;;-142.75;100.00;77204.19;5026853;28;20477;-62
2023/09/03 02:43:58;;;;;;;11.27;7.72;;;;;;;-142.75;100.00;77196.31;5028841;28;20104;-62
2023/09/03 02:46:24;;;;;;;12.55;7.85;;;;;;;-142.75;100.00;77212.06;5028406;28;20083;-63
2023/09/03 02:48:49;;;;;;;11.85;7.90;;;;;;;-142.75;100.00;77202.22;5028830;28;20698;-62
2023/09/03 02:51:15;;;;;;;12.25;7.07;;;;;;;-142.75;100.00;77198.28;5028922;28;20095;-63
2023/09/03 02:53:42;;;;;;;12.82;7.63;;;;;;;-142.75;100.00;77196.31;5028395;28;20025;-63
2023/09/03 02:56:08;;;;;;;13.32;8.82;;;;;;;-142.75;100.00;77196.31;5028170;28;20476;-63
2023/09/03 02:58:33;;;;;;;9.98;6.18;;;;;;;-142.75;100.00;77192.38;5028412;28;20108;-63
2023/09/03 03:01:06;;;;;;;11.02;6.38;;;;;;;-142.75;100.00;77184.50;5028305;28;20076;-63
2023/09/03 03:03:32;;;;;;;11.82;7.53;;;;;;;-142.75;100.00;77198.28;5033496;28;20108;-62
2023/09/03 03:05:57;;;;;;;10.30;6.95;;;;;;;-142.75;100.00;77235.69;5028038;28;20105;-63
2023/09/03 03:08:22;;;;;;;10.20;5.88;;;;;;;-142.75;100.00;77239.63;5027996;28;20103;-62
2023/09/03 03:10:48;;;;;;;9.05;5.90;;;;;;;-142.75;100.00;77241.59;5028550;28;20100;-62
2023/09/03 03:13:13;;;;;;;9.18;6.53;;;;;;;-142.75;100.00;77257.34;5028230;28;20048;-62
2023/09/03 03:15:38;;;;;;;10.10;6.35;;;;;;;-142.75;100.00;77239.63;5028125;28;20148;-63
2023/09/03 03:18:04;;;;;;;11.38;7.53;;;;;;;-142.75;100.00;77247.50;5028011;28;20025;-63
2023/09/03 03:20:29;;;;;;;10.90;7.43;;;;;;;-142.75;100.00;77255.38;5028048;28;20021;-63
2023/09/03 03:22:55;;;;;;;10.15;6.47;;;;;;;-142.75;100.00;77279.00;5027760;28;20028;-62
2023/09/03 03:25:20;;;;;;;5.80;4.43;;;;;;;-142.75;100.00;77296.72;5027725;28;20037;-62
2023/09/03 03:27:45;;;;;;;8.48;5.20;;;;;;;-142.75;100.00;77308.53;5028175;28;20040;-62
2023/09/03 03:30:11;;;;;;;9.60;5.50;;;;;;;-142.75;100.00;77306.56;5027603;28;20133;-62
2023/09/03 03:32:36;;;;;;;8.65;5.55;;;;;;;-142.75;100.00;77310.50;5027723;28;20021;-62
2023/09/03 03:35:01;;;;;;;8.65;6.00;;;;;;;-142.75;100.00;77306.56;5027615;28;20036;-63
2023/09/03 03:37:27;;;;;;;11.80;6.55;;;;;;;-142.75;100.00;77310.50;5027421;28;20102;-62
2023/09/03 03:39:52;;;;;;;11.25;7.00;;;;;;;-142.75;100.00;77314.44;5028209;28;20018;-62
2023/09/03 03:42:17;;;;;;;12.45;5.97;;;;;;;-142.75;100.00;77310.50;5027600;28;20017;-63
2023/09/03 03:44:43;;;;;;;8.13;5.35;;;;;;;-142.75;100.00;77310.50;5027199;28;20018;-63
2023/09/03 03:47:08;;;;;;;8.27;6.25;;;;;;;-142.75;100.00;77322.31;5027457;28;20021;-62
2023/09/03 03:49:33;;;;;;;11.02;6.97;;;;;;;-142.75;100.00;77318.38;5027434;28;20079;-63
2023/09/03 03:51:59;;;;;;;11.15;7.20;;;;;;;-142.75;100.00;77326.25;5027490;28;20035;-62
2023/09/03 03:54:24;;;;;;;10.52;6.85;;;;;;;-142.75;100.00;77332.16;5027299;28;20060;-62
2023/09/03 03:56:50;;;;;;;10.90;7.68;;;;;;;-142.75;100.00;77330.19;5027296;28;20013;-63
2023/09/03 03:59:15;;;;;;;10.35;6.47;;;;;;;-142.75;100.00;77342.00;5027523;28;20017;-63
2023/09/03 04:01:40;;;;;;;9.88;5.63;;;;;;;-142.75;100.00;77342.00;5027180;28;20103;-62
2023/09/03 04:04:06;;;;;;;9.68;6.10;;;;;;;-142.75;100.00;77355.78;5027088;28;20025;-62
2023/09/03 04:06:31;;;;;;;9.50;5.70;;;;;;;-142.75;100.00;77365.63;5019190;28;20021;-62
2023/09/03 04:08:57;;;;;;;11.52;7.47;;;;;;;-142.75;100.00;77330.19;5026043;28;20029;-62
2023/09/03 04:11:24;;;;;;;10.98;6.82;;;;;;;-142.75;100.00;77314.44;5025713;28;20051;-62
2023/09/03 04:13:49;;;;;;;9.98;6.88;;;;;;;-142.75;100.00;77312.47;5027133;28;20013;-62
2023/09/03 04:16:17;;;;;;;14.23;7.85;;;;;;;-142.75;100.00;77298.69;5024324;28;20549;-63
2023/09/03 04:18:44;;;;;;;13.13;8.25;;;;;;;-142.75;100.00;77294.75;5025997;28;20090;-63
2023/09/03 04:21:10;;;;;;;18.05;8.35;;;;;;;-142.75;100.00;77310.50;5026556;28;20025;-62
2023/09/03 04:23:35;;;;;;;9.32;6.28;;;;;;;-142.75;100.00;77300.66;5026918;28;20443;-62
2023/09/03 04:26:01;;;;;;;7.88;5.65;;;;;;;-142.75;100.00;77300.66;5026465;28;20025;-62
2023/09/03 04:28:27;;;;;;;11.00;7.20;;;;;;;-142.75;100.00;77304.59;5026875;28;20682;-62
2023/09/03 04:30:59;;;;;;;12.63;7.82;;;;;;;-142.75;100.00;77294.75;5026785;28;20020;-62
2023/09/03 04:33:25;;;;;;;11.27;7.85;;;;;;;-142.75;100.00;77310.50;5026483;28;20024;-62
2023/09/03 04:35:58;;;;;;;14.48;8.95;;;;;;;-142.75;100.00;77296.72;5026428;28;20377;-63
2023/09/03 04:38:24;;;;;;;15.02;9.30;;;;;;;-142.75;100.00;77310.50;5028066;28;20022;-62
2023/09/03 04:40:50;;;;;;;12.80;8.65;;;;;;;-142.75;100.00;77326.25;5022440;28;20071;-62
2023/09/03 04:43:17;;;;;;;15.60;8.27;;;;;;;-142.75;100.00;77310.50;5026739;28;20055;-62
2023/09/03 04:45:47;;;;;;;11.07;7.65;;;;;;;-142.75;100.00;77318.38;5025284;28;20022;-63
2023/09/03 04:48:13;;;;;;;11.30;7.50;;;;;;;-142.75;100.00;77326.25;5026496;28;20017;-63
2023/09/03 04:50:39;;;;;;;9.77;6.38;;;;;;;-142.75;100.00;77318.38;5026249;28;20022;-62
2023/09/03 04:53:04;;;;;;;12.63;8.43;;;;;;;-142.75;100.00;77290.81;5026344;28;20541;-62
2023/09/03 04:55:33;;;;;;;13.02;8.20;;;;;;;-142.75;100.00;77275.06;5026382;28;20520;-61
2023/09/03 04:57:59;;;;;;;12.00;8.05;;;;;;;-142.75;100.00;77300.66;5026289;28;20477;-63
2023/09/03 05:00:24;;;;;;;11.38;7.75;;;;;;;-142.75;100.00;77300.66;5026342;28;20025;-62
2023/09/03 05:02:50;;;;;;;13.10;7.82;;;;;;;-142.75;100.00;77314.44;5026620;28;20104;-62
2023/09/03 05:05:15;;;;;;;12.02;6.68;;;;;;;-142.75;100.00;77336.09;5030287;28;20033;-62
2023/09/03 05:07:41;;;;;;;9.75;6.43;;;;;;;-142.75;100.00;77328.22;5032684;28;20168;-63
2023/09/03 05:10:07;;;;;;;13.57;7.43;;;;;;;-142.75;100.00;77334.13;5032825;28;20104;-62
2023/09/03 05:12:33;;;;;;;10.25;7.07;;;;;;;-142.75;100.00;77322.31;5032827;28;20020;-62
2023/09/03 05:14:58;;;;;;;12.50;7.47;;;;;;;-142.75;100.00;77326.25;5032933;28;20025;-62
2023/09/03 05:17:24;;;;;;;14.13;8.05;;;;;;;-142.75;100.00;77310.50;5029690;28;20105;-62
2023/09/03 05:19:49;;;;;;;15.35;9.18;;;;;;;-142.75;100.00;77302.63;5032730;28;20670;-62
2023/09/03 05:22:15;;;;;;;13.25;8.45;;;;;;;-142.75;100.00;77288.84;5032830;28;20021;-63
2023/09/03 05:24:40;;;;;;;14.95;8.25;;;;;;;-142.75;100.00;77288.84;5032519;28;20493;-62
2023/09/03 05:27:06;;;;;;;16.60;8.90;;;;;;;-142.75;100.00;77282.94;5032230;28;20021;-62
2023/09/03 05:29:31;;;;;;;13.80;8.77;;;;;;;-142.75;100.00;77310.50;5032476;28;20156;-62
2023/09/03 05:31:56;;;;;;;13.85;8.68;;;;;;;-142.75;100.00;77312.47;5032758;28;20036;-63
2023/09/03 05:34:23;;;;;;;13.10;7.95;;;;;;;-142.75;100.00;77308.53;5032480;28;20029;-62
2023/09/03 05:36:49;;;;;;;13.85;8.85;;;;;;;-142.75;100.00;77306.56;5032737;28;20041;-62
2023/09/03 05:39:14;;;;;;;14.77;10.18;;;;;;;-142.75;100.00;77300.66;5032369;28;20607;-62
2023/09/03 05:41:39;;;;;;;15.18;9.68;;;;;;;-142.75;100.00;77304.59;5032273;28;20565;-62
2023/09/03 05:44:09;;;;;;;11.95;8.00;;;;;;;-142.75;100.00;77308.53;5032373;28;20050;-62
2023/09/03 05:46:35;;;;;;;11.82;7.50;;;;;;;-142.75;100.00;77292.78;5032211;28;20049;-62
2023/09/03 05:49:00;;;;;;;10.68;7.45;;;;;;;-142.75;100.00;77279.00;5032078;28;20536;-62
2023/09/03 05:51:26;;;;;;;12.40;6.88;;;;;;;-142.75;100.00;77273.09;5032460;28;20168;-62
2023/09/03 05:53:53;;;;;;;12.85;7.30;;;;;;;-142.75;100.00;77286.88;5032534;28;20065;-62
2023/09/03 05:56:19;;;;;;;13.18;7.82;;;;;;;-142.75;100.00;77300.66;5032329;28;20033;-62
2023/09/03 05:58:44;;;;;;;18.00;8.25;;;;;;;-142.75;100.00;77300.66;5032194;28;20083;-62
2023/09/03 06:01:10;;;;;;;12.80;7.13;;;;;;;-142.75;100.00;77282.94;5032302;28;20053;-62
2023/09/03 06:03:38;;;;;;;16.13;7.82;;;;;;;-142.75;100.00;77275.06;5032203;28;20048;-62
2023/09/03 06:06:07;;;;;;;15.10;8.60;;;;;;;-142.75;100.00;77282.94;5031906;28;20021;-62
2023/09/03 06:08:33;;;;;;;11.13;7.20;;;;;;;-142.75;100.00;77277.03;5032116;28;20021;-62
2023/09/03 06:11:00;;;;;;;10.65;6.85;;;;;;;-142.75;100.00;77267.19;5030005;28;20390;-62
2023/09/03 06:13:29;;;;;;;10.90;5.85;;;;;;;-142.75;100.00;77261.28;5037381;28;20821;-62
2023/09/03 06:15:55;;;;;;;11.02;6.50;;;;;;;-142.75;100.00;77277.03;5028916;28;20021;-62
2023/09/03 06:18:21;;;;;;;10.25;6.53;;;;;;;-142.75;100.00;77279.00;5028952;28;20524;-61
2023/09/03 06:20:46;;;;;;;9.18;6.25;;;;;;;-142.75;100.00;77269.16;5029431;28;20049;-62
2023/09/03 06:23:21;;;;;;;11.20;7.68;;;;;;;-142.75;100.00;77247.50;5029052;28;20017;-63
2023/09/03 06:25:48;;;;;;;10.55;6.85;;;;;;;-142.75;100.00;77235.69;5029020;28;20031;-62
2023/09/03 06:28:13;;;;;;;13.82;7.75;;;;;;;-142.75;100.00;77231.75;5025998;28;20075;-62
2023/09/03 06:30:39;;;;;;;11.40;7.88;;;;;;;-142.75;100.00;77212.06;5028793;28;20595;-62
2023/09/03 06:33:05;;;;;;;13.60;8.95;;;;;;;-142.75;100.00;77194.34;5028750;28;20025;-62
2023/09/03 06:35:30;;;;;;;15.93;8.63;;;;;;;-142.75;100.00;77178.59;5028554;28;20057;-63
2023/09/03 06:37:56;;;;;;;14.63;9.70;;;;;;;-142.75;100.00;77164.81;5028589;28;20033;-63
2023/09/03 06:40:22;;;;;;;15.50;9.13;;;;;;;-142.75;100.00;77141.19;5028505;28;20112;-59
2023/09/03 06:42:47;;;;;;;15.13;9.57;;;;;;;-142.75;100.00;77125.44;5029211;28;20182;-62
2023/09/03 06:45:13;;;;;;;17.27;10.40;;;;;;;-142.75;100.00;77109.69;5028426;28;20513;-63
2023/09/03 06:47:38;;;;;;;13.38;9.32;;;;;;;-142.75;100.00;77119.53;5028450;28;20029;-62
2023/09/03 06:50:05;;;;;;;14.05;9.30;;;;;;;-142.75;100.00;77084.09;5028609;28;20423;-62
2023/09/03 06:52:31;;;;;;;16.05;10.50;;;;;;;-142.75;100.00;77078.19;5028531;28;20029;-62
2023/09/03 06:54:56;;;;;;;14.70;9.95;;;;;;;-142.75;100.00;77066.38;5028307;28;20021;-63
2023/09/03 06:57:22;;;;;;;15.00;10.02;;;;;;;-142.75;100.00;77091.97;5027760;28;20033;-63
2023/09/03 06:59:48;;;;;;;14.70;8.95;;;;;;;-142.75;100.00;77097.88;5027985;28;20024;-63
2023/09/03 07:02:13;;;;;;;15.40;9.52;;;;;;;-142.75;100.00;77062.44;5028197;28;20021;-63
2023/09/03 07:04:38;;;;;;;15.25;9.55;;;;;;;-142.75;100.00;77099.84;5028031;28;20017;-63
2023/09/03 07:07:04;;;;;;;16.15;10.13;;;;;;;-142.75;100.00;77121.50;5027852;28;20031;-63
2023/09/03 07:09:31;;;;;;;13.52;9.50;;;;;;;-142.75;100.00;77111.66;5028111;28;20030;-63
2023/09/03 07:11:56;;;;;;;16.50;9.27;;;;;;;-142.75;100.00;77105.75;5028137;28;20032;-63
2023/09/03 07:14:22;;;;;;;15.32;10.00;;;;;;;-142.75;100.00;77076.22;5027677;28;20026;-63
2023/09/03 07:16:47;;;;;;;14.82;9.73;;;;;;;-142.75;100.00;77078.19;5025612;28;20032;-63
2023/09/03 07:19:13;;;;;;;14.07;9.70;;;;;;;-142.75;100.00;77074.25;5028132;28;20405;-63
2023/09/03 07:21:38;;;;;;;15.30;9.85;;;;;;;-142.75;100.00;77080.16;5027630;28;20064;-64
2023/09/03 07:24:04;;;;;;;12.38;9.50;;;;;;;-142.75;100.00;77078.19;5027757;28;20030;-63
2023/09/03 07:26:29;;;;;;;14.15;8.98;;;;;;;-142.75;100.00;77121.50;5027437;28;20025;-63
2023/09/03 07:28:54;;;;;;;14.52;8.77;;;;;;;-142.75;100.00;77105.75;5027004;28;20029;-63
2023/09/03 07:31:20;;;;;;;13.63;9.10;;;;;;;-142.75;100.00;77076.22;5027834;28;20029;-63
2023/09/03 07:33:45;;;;;;;13.65;8.68;;;;;;;-142.75;100.00;77062.44;5027696;28;20045;-63
2023/09/03 07:36:11;;;;;;;14.60;9.95;;;;;;;-142.75;100.00;77048.66;5027354;28;20040;-63
2023/09/03 07:38:40;;;;;;;14.25;9.25;;;;;;;-142.75;100.00;77030.94;5022803;28;20017;-63
2023/09/03 07:41:06;;;;;;;11.65;9.05;;;;;;;-142.75;100.00;77060.47;5027013;28;20448;-63
2023/09/03 07:43:31;;;;;;;11.55;8.68;;;;;;;-142.75;100.00;77072.28;5027045;28;20033;-62
2023/09/03 07:45:56;;;;;;;13.35;8.93;;;;;;;-142.75;100.00;77023.06;5027076;28;20109;-63
2023/09/03 07:48:22;;;;;;;15.32;9.85;;;;;;;-142.75;100.00;77058.50;5027316;28;20025;-58
2023/09/03 07:50:49;;;;;;;13.32;9.07;;;;;;;-142.75;100.00;77007.31;5027494;28;20035;-63
2023/09/03 07:53:14;;;;;;;12.32;7.95;;;;;;;-142.75;100.00;77050.63;5027378;28;20436;-63
2023/09/03 07:55:40;;;;;;;13.40;8.68;;;;;;;-142.75;100.00;77068.34;5026906;28;20048;-62
2023/09/03 07:58:05;;;;;;;12.10;8.52;;;;;;;-142.75;100.00;77074.25;5025614;28;20065;-63
2023/09/03 08:00:31;;;;;;;12.73;8.65;;;;;;;-142.75;100.00;77030.94;5027080;28;20036;-63
2023/09/03 08:02:56;;;;;;;15.48;8.25;;;;;;;-142.75;100.00;77021.09;5027015;28;20022;-62
2023/09/03 08:05:22;;;;;;;14.25;8.90;;;;;;;-142.75;100.00;77027.00;5026751;28;20033;-62
2023/09/03 08:07:48;;;;;;;14.43;8.38;;;;;;;-142.75;100.00;77013.22;5026844;28;20032;-63
2023/09/03 08:10:13;;;;;;;14.13;8.93;;;;;;;-142.75;100.00;76985.66;5026878;28;20018;-63
2023/09/03 08:12:38;;;;;;;13.25;7.65;;;;;;;-142.75;100.00;76977.78;5026501;28;20621;-62
2023/09/03 08:15:04;;;;;;;14.02;8.55;;;;;;;-142.75;100.00;76948.25;5026704;28;20218;-63
2023/09/03 08:17:31;;;;;;;11.43;7.97;;;;;;;-142.75;100.00;76962.03;5026504;28;20025;-63
2023/09/03 08:19:56;;;;;;;10.65;7.55;;;;;;;-142.75;100.00;76932.50;5026516;28;20540;-63
2023/09/03 08:22:22;;;;;;;10.82;7.07;;;;;;;-142.75;100.00;76940.38;5026787;28;20029;-61
2023/09/03 08:24:47;;;;;;;11.35;7.72;;;;;;;-142.75;100.00;76928.56;5033086;28;20028;-63
2023/09/03 08:27:12;;;;;;;11.32;7.75;;;;;;;-142.75;100.00;76906.91;5021779;28;20677;-62
2023/09/03 08:29:38;;;;;;;9.18;6.57;;;;;;;-142.75;100.00;76887.22;5026548;28;20022;-62
2023/09/03 08:32:03;;;;;;;13.05;7.45;;;;;;;-142.75;100.00;76901.00;5026548;28;20691;-62
2023/09/03 08:34:29;;;;;;;9.48;6.85;;;;;;;-142.75;100.00;76869.50;5024694;28;20040;-63
2023/09/03 08:36:54;;;;;;;10.15;7.10;;;;;;;-142.75;100.00;76853.75;5026197;28;20022;-63
2023/09/03 08:39:19;;;;;;;9.82;6.82;;;;;;;-142.75;100.00;76863.59;5025906;28;20022;-64
2023/09/03 08:41:46;;;;;;;12.10;6.25;;;;;;;-142.75;100.00;76826.19;5026267;28;20440;-63
2023/09/03 08:44:36;;;;;;;10.98;6.78;;;;;;;-142.75;100.00;76814.38;5026269;28;20025;-64
2023/09/03 08:47:04;;;;;;;10.30;7.10;;;;;;;-142.75;100.00;76796.69;5025844;28;20037;-60
2023/09/03 08:49:31;;;;;;;8.32;6.45;;;;;;;-142.75;100.00;76771.09;5026324;28;20029;-62
2023/09/03 08:52:01;;;;;;;10.13;7.15;;;;;;;-142.75;100.00;76759.28;5026253;28;20497;-62
2023/09/03 08:54:27;;;;;;;8.50;6.50;;;;;;;-142.75;100.00;76761.25;5026132;28;20025;-62
2023/09/03 08:56:52;;;;;;;10.50;7.03;;;;;;;-142.75;100.00;76800.63;5026079;28;20025;-62
2023/09/03 08:59:18;;;;;;;9.77;7.07;;;;;;;-142.75;100.00;76765.19;5026294;28;20381;-62
2023/09/03 09:01:45;;;;;;;10.20;6.72;;;;;;;-142.75;100.00;76729.75;5026296;28;20609;-62
2023/09/03 09:04:12;;;;;;;8.88;5.60;;;;;;;-142.75;100.00;76725.81;5026188;28;20026;-62
2023/09/03 09:06:43;;;;;;;11.90;6.85;;;;;;;-142.75;100.00;76727.78;5025995;28;20026;-63
2023/09/03 09:09:09;;;;;;;9.43;6.57;;;;;;;-142.75;100.00;76700.22;5025499;28;20032;-62
2023/09/03 09:11:39;;;;;;;11.20;5.93;;;;;;;-142.75;100.00;76680.53;5026147;28;20018;-63
2023/09/03 09:14:11;;;;;;;9.98;6.35;;;;;;;-142.75;100.00;76666.75;5025899;28;20507;-62
2023/09/03 09:16:36;;;;;;;8.32;6.22;;;;;;;-142.75;100.00;76652.97;5026335;28;20087;-62
2023/09/03 09:19:02;;;;;;;8.48;5.78;;;;;;;-142.75;100.00;76641.16;5025796;28;20477;-62
2023/09/03 09:21:31;;;;;;;9.45;5.55;;;;;;;-142.75;100.00;76643.13;5024841;28;20021;-62
2023/09/03 09:24:03;;;;;;;8.30;5.20;;;;;;;-142.75;100.00;76619.50;5023904;28;20038;-62
2023/09/03 09:26:32;;;;;;;6.28;4.20;;;;;;;-142.75;100.00;76607.69;5024642;28;20534;-62
2023/09/03 09:29:02;;;;;;;7.18;4.82;;;;;;;-142.75;100.00;76603.75;5024848;28;20040;-62
2023/09/03 09:31:32;;;;;;;9.00;5.25;;;;;;;-142.75;100.00;76603.75;5025345;28;20025;-61
2023/09/03 09:34:00;;;;;;;6.35;3.95;;;;;;;-142.75;100.00;76605.72;5025821;28;20025;-62
2023/09/03 09:36:26;;;;;;;8.40;5.13;;;;;;;-142.75;100.00;76601.78;5025781;28;20033;-61
2023/09/03 09:38:52;;;;;;;8.77;5.25;;;;;;;-142.75;100.00;76588.00;5026676;28;20362;-61
2023/09/03 09:41:25;;;;;;;7.13;3.90;;;;;;;-142.75;100.00;76601.78;5026200;28;20033;-62
2023/09/03 09:43:51;;;;;;;11.00;5.20;;;;;;;-142.75;100.00;76568.31;5026170;28;20152;-62
2023/09/03 09:46:26;;;;;;;5.47;3.65;;;;;;;-142.75;100.00;76552.56;5025763;28;20112;-61
2023/09/03 09:48:56;;;;;;;7.93;3.72;;;;;;;-142.75;100.00;76562.41;5025992;28;20044;-61
2023/09/03 09:51:22;;;;;;;6.90;4.28;;;;;;;-142.75;100.00;76560.44;5028150;28;20036;-61
2023/09/03 09:54:02;;;;;;;6.40;4.45;;;;;;;-142.75;100.00;76546.66;5029224;28;20024;-61
2023/09/03 09:56:28;;;;;;;4.85;3.05;;;;;;;-142.75;100.00;76570.28;5028618;28;20045;-62
2023/09/03 09:58:54;;;;;;;3.95;2.22;;;;;;;-142.75;94.77;76568.31;5028917;28;20074;-62
2023/09/03 10:01:20;;;;;;;7.75;3.85;;;;;;;-142.75;100.00;76554.53;5029272;28;20029;-62
2023/09/03 10:03:47;;;;;;;9.27;6.00;;;;;;;-142.75;100.00;76499.44;5029164;28;20025;-62
2023/09/03 10:06:14;;;;;;;9.82;5.68;;;;;;;-142.75;100.00;76495.50;5026995;28;20024;-62
2023/09/03 10:08:41;;;;;;;31.20;5.80;;;;;;;-142.75;100.00;76515.19;5028583;28;20032;-61
2023/09/03 10:11:06;;;;;;;7.47;4.97;;;;;;;-142.75;100.00;76481.72;5028711;28;20021;-61
2023/09/03 10:13:32;;;;;;;6.70;4.50;;;;;;;-142.75;100.00;76473.84;5030365;28;20496;-61
2023/09/03 10:16:02;;;;;;;6.47;4.43;;;;;;;-142.75;100.00;76495.50;5029107;28;20025;-60
2023/09/03 10:18:28;;;;;;;6.82;4.05;;;;;;;-142.75;100.00;76485.66;5029226;28;20040;-61
2023/09/03 10:20:56;;;;;;;7.90;4.22;;;;;;;-142.75;100.00;76462.03;5029114;28;20704;-61
2023/09/03 10:23:25;;;;;;;8.70;4.35;;;;;;;-142.75;100.00;76499.44;5027549;28;20562;-62
2023/09/03 10:25:51;;;;;;;5.40;4.00;;;;;;;-142.75;100.00;76507.31;5028281;28;20125;-61
2023/09/03 10:28:22;;;;;;;8.73;4.53;;;;;;;-142.75;100.00;76495.50;5027839;28;20026;-60
2023/09/03 10:30:51;;;;;;;7.35;4.97;;;;;;;-142.75;100.00;76493.53;5029115;28;20052;-61
2023/09/03 10:33:17;;;;;;;7.65;4.57;;;;;;;-142.75;100.00;76475.81;5029475;28;20033;-61
2023/09/03 10:36:13;;;;;;;9.23;5.40;;;;;;;-142.75;97.71;76487.63;5028654;28;20020;-61
2023/09/03 10:38:38;;;;;;;7.68;4.35;;;;;;;-142.75;100.00;76521.09;5027395;28;20100;-61
2023/09/03 10:41:22;;;;;;;9.10;4.85;;;;;;;-142.75;100.00;76501.41;5028625;28;20583;-61
2023/09/03 10:43:52;;;;;;;6.05;4.55;;;;;;;-142.75;100.00;76491.56;5028900;28;20024;-61
2023/09/03 10:46:18;;;;;;;7.20;4.50;;;;;;;-142.75;100.00;76527.00;5028237;28;20432;-61
2023/09/03 10:48:54;;;;;;;8.27;4.85;;;;;;;-142.75;100.00;76511.25;5028504;28;20025;-61
2023/09/03 10:51:39;;;;;;;6.00;4.13;;;;;;;-142.75;100.00;76499.44;5028049;28;20108;-61
2023/09/03 10:54:14;;;;;;;9.68;4.32;;;;;;;-142.75;100.00;76452.19;5028575;28;20029;-61
2023/09/03 10:57:05;;;;;;;5.07;3.78;;;;;;;-142.75;100.00;76420.69;5029583;28;20087;-62
2023/09/03 10:59:58;;;;;;;8.38;4.50;;;;;;;-142.75;100.00;76440.38;5027503;28;20024;-61
2023/09/03 11:02:28;;;;;;;5.00;3.75;;;;;;;-142.75;100.00;76416.75;5026172;28;20069;-60
2023/09/03 11:05:09;;;;;;;6.68;3.38;;;;;;;-142.75;100.00;76414.78;5028123;28;20021;-60